sensor_id;sensor_type;location;lat;lon;timestamp;temperature;humidity
40758;DHT22;26462;47.384;19.218;2023-07-31T01:44:08;19.70;99.90
40758;DHT22;26462;47.384;19.218;2023-07-31T01:46:36;19.80;99.90
40758;DHT22;26462;47.384;19.218;2023-07-31T01:49:05;19.70;99.90
40758;DHT22;26462;47.384;19.218;2023-07-31T01:51:33;19.70;99.90
40758;DHT22;26462;47.384;19.218;2023-07-31T01:54:02;19.70;99.90
40758;DHT22;26462;47.384;19.218;2023-07-31T01:56:40;19.70;99.90
40758;DHT22;26462;47.384;19.218;2023-07-31T02:28:57;19.60;99.90
40758;DHT22;26462;47.384;19.218;2023-07-31T02:48:45;19.60;99.90
40758;DHT22;26462;47.384;19.218;2023-07-31T02:51:16;19.60;99.90
40758;DHT22;26462;47.384;19.218;2023-07-31T02:53:44;19.60;99.90
40758;DHT22;26462;47.384;19.218;2023-07-31T03:03:07;19.60;99.90
40758;DHT22;26462;47.384;19.218;2023-07-31T03:16:41;19.60;99.90
40758;DHT22;26462;47.384;19.218;2023-07-31T03:19:08;19.60;99.90
40758;DHT22;26462;47.384;19.218;2023-07-31T03:21:36;19.60;99.90
40758;DHT22;26462;47.384;19.218;2023-07-31T03:24:11;19.60;99.90
40758;DHT22;26462;47.384;19.218;2023-07-31T03:26:45;19.50;99.90
40758;DHT22;26462;47.384;19.218;2023-07-31T03:29:12;19.50;99.90
40758;DHT22;26462;47.384;19.218;2023-07-31T03:31:39;19.50;99.90
40758;DHT22;26462;47.384;19.218;2023-07-31T03:36:55;19.50;99.90
40758;DHT22;26462;47.384;19.218;2023-07-31T03:42:44;19.50;99.90
40758;DHT22;26462;47.384;19.218;2023-07-31T03:55:46;19.60;99.90
40758;DHT22;26462;47.384;19.218;2023-07-31T03:58:23;19.60;99.90
40758;DHT22;26462;47.384;19.218;2023-07-31T04:00:52;19.70;99.90
40758;DHT22;26462;47.384;19.218;2023-07-31T04:03:20;19.70;99.90
40758;DHT22;26462;47.384;19.218;2023-07-31T04:05:47;19.80;99.90
40758;DHT22;26462;47.384;19.218;2023-07-31T04:08:47;19.80;99.90
40758;DHT22;26462;47.384;19.218;2023-07-31T04:11:14;19.80;99.90
40758;DHT22;26462;47.384;19.218;2023-07-31T04:13:44;19.90;99.90
40758;DHT22;26462;47.384;19.218;2023-07-31T04:16:12;19.90;99.90
40758;DHT22;26462;47.384;19.218;2023-07-31T04:18:47;20.00;99.90
40758;DHT22;26462;47.384;19.218;2023-07-31T04:21:21;20.10;99.90
40758;DHT22;26462;47.384;19.218;2023-07-31T04:23:56;20.00;99.90
40758;DHT22;26462;47.384;19.218;2023-07-31T04:26:23;20.10;99.90
40758;DHT22;26462;47.384;19.218;2023-07-31T04:28:54;20.10;99.90
40758;DHT22;26462;47.384;19.218;2023-07-31T04:31:23;20.10;99.90
40758;DHT22;26462;47.384;19.218;2023-07-31T04:33:57;20.10;99.90
40758;DHT22;26462;47.384;19.218;2023-07-31T04:36:24;20.10;99.90
40758;DHT22;26462;47.384;19.218;2023-07-31T04:38:55;20.10;99.90
40758;DHT22;26462;47.384;19.218;2023-07-31T04:41:24;20.10;99.90
40758;DHT22;26462;47.384;19.218;2023-07-31T04:47:36;20.20;99.90
40758;DHT22;26462;47.384;19.218;2023-07-31T04:56:16;20.40;99.90
40758;DHT22;26462;47.384;19.218;2023-07-31T05:12:18;20.40;99.90
40758;DHT22;26462;47.384;19.218;2023-07-31T05:15:14;20.20;99.90
40758;DHT22;26462;47.384;19.218;2023-07-31T05:17:42;20.40;99.90
40758;DHT22;26462;47.384;19.218;2023-07-31T05:20:10;20.40;99.90
40758;DHT22;26462;47.384;19.218;2023-07-31T05:22:45;20.50;99.90
40758;DHT22;26462;47.384;19.218;2023-07-31T05:25:15;20.60;99.90
40758;DHT22;26462;47.384;19.218;2023-07-31T05:27:44;20.70;99.90
40758;DHT22;26462;47.384;19.218;2023-07-31T05:30:14;20.90;99.90
40758;DHT22;26462;47.384;19.218;2023-07-31T05:33:48;21.00;99.90
40758;DHT22;26462;47.384;19.218;2023-07-31T05:36:17;21.20;99.90
40758;DHT22;26462;47.384;19.218;2023-07-31T05:38:51;21.10;97.60
40758;DHT22;26462;47.384;19.218;2023-07-31T05:41:25;21.20;98.10
40758;DHT22;26462;47.384;19.218;2023-07-31T05:44:02;21.30;97.60
40758;DHT22;26462;47.384;19.218;2023-07-31T05:46:35;21.30;96.10
40758;DHT22;26462;47.384;19.218;2023-07-31T06:31:35;22.50;87.00
40758;DHT22;26462;47.384;19.218;2023-07-31T06:34:03;22.70;85.30
40758;DHT22;26462;47.384;19.218;2023-07-31T06:36:32;22.80;84.00
40758;DHT22;26462;47.384;19.218;2023-07-31T06:38:59;23.00;82.60
40758;DHT22;26462;47.384;19.218;2023-07-31T06:41:28;23.10;81.40
40758;DHT22;26462;47.384;19.218;2023-07-31T06:43:59;23.20;81.40
40758;DHT22;26462;47.384;19.218;2023-07-31T06:46:29;23.40;80.40
40758;DHT22;26462;47.384;19.218;2023-07-31T06:48:57;23.50;79.70
40758;DHT22;26462;47.384;19.218;2023-07-31T06:51:27;23.60;77.30
40758;DHT22;26462;47.384;19.218;2023-07-31T06:54:00;23.60;76.20
40758;DHT22;26462;47.384;19.218;2023-07-31T06:56:31;23.60;73.70
40758;DHT22;26462;47.384;19.218;2023-07-31T07:02:32;23.40;73.60
40758;DHT22;26462;47.384;19.218;2023-07-31T07:05:00;23.10;73.80
40758;DHT22;26462;47.384;19.218;2023-07-31T07:07:29;23.00;73.60
40758;DHT22;26462;47.384;19.218;2023-07-31T07:12:53;23.20;73.60
40758;DHT22;26462;47.384;19.218;2023-07-31T07:15:49;23.20;73.60
40758;DHT22;26462;47.384;19.218;2023-07-31T07:18:29;23.60;73.10
40758;DHT22;26462;47.384;19.218;2023-07-31T07:20:56;23.50;72.40
40758;DHT22;26462;47.384;19.218;2023-07-31T07:23:26;23.50;73.40
40758;DHT22;26462;47.384;19.218;2023-07-31T07:25:59;23.70;73.70
40758;DHT22;26462;47.384;19.218;2023-07-31T07:28:27;23.90;73.30
40758;DHT22;26462;47.384;19.218;2023-07-31T07:30:55;24.00;72.80
40758;DHT22;26462;47.384;19.218;2023-07-31T07:33:27;23.90;72.80
40758;DHT22;26462;47.384;19.218;2023-07-31T07:36:02;24.00;72.80
40758;DHT22;26462;47.384;19.218;2023-07-31T07:38:30;23.60;73.90
40758;DHT22;26462;47.384;19.218;2023-07-31T07:40:58;23.30;74.90
40758;DHT22;26462;47.384;19.218;2023-07-31T07:43:37;23.30;76.00
40758;DHT22;26462;47.384;19.218;2023-07-31T07:46:06;23.20;77.20
40758;DHT22;26462;47.384;19.218;2023-07-31T07:48:35;23.60;76.50
40758;DHT22;26462;47.384;19.218;2023-07-31T07:51:04;23.60;77.30
40758;DHT22;26462;47.384;19.218;2023-07-31T07:53:37;23.60;76.50
40758;DHT22;26462;47.384;19.218;2023-07-31T07:56:08;23.50;77.20
40758;DHT22;26462;47.384;19.218;2023-07-31T07:58:49;23.80;77.20
40758;DHT22;26462;47.384;19.218;2023-07-31T08:01:42;24.30;76.40
40758;DHT22;26462;47.384;19.218;2023-07-31T08:04:09;24.30;75.90
40758;DHT22;26462;47.384;19.218;2023-07-31T08:06:36;24.60;75.00
40758;DHT22;26462;47.384;19.218;2023-07-31T08:09:04;24.40;73.60
40758;DHT22;26462;47.384;19.218;2023-07-31T08:11:37;24.20;73.70
40758;DHT22;26462;47.384;19.218;2023-07-31T08:14:06;23.80;73.20
40758;DHT22;26462;47.384;19.218;2023-07-31T08:16:35;23.60;72.60
40758;DHT22;26462;47.384;19.218;2023-07-31T08:19:03;23.60;72.60
40758;DHT22;26462;47.384;19.218;2023-07-31T08:21:32;23.80;70.70
40758;DHT22;26462;47.384;19.218;2023-07-31T08:24:00;24.10;69.90
40758;DHT22;26462;47.384;19.218;2023-07-31T08:26:33;24.20;69.90
40758;DHT22;26462;47.384;19.218;2023-07-31T08:29:05;24.30;70.70
40758;DHT22;26462;47.384;19.218;2023-07-31T08:31:34;24.20;69.60
40758;DHT22;26462;47.384;19.218;2023-07-31T08:34:02;24.00;68.70
40758;DHT22;26462;47.384;19.218;2023-07-31T08:36:30;24.40;69.50
40758;DHT22;26462;47.384;19.218;2023-07-31T08:38:57;24.30;69.70
40758;DHT22;26462;47.384;19.218;2023-07-31T08:41:29;24.00;67.40
40758;DHT22;26462;47.384;19.218;2023-07-31T08:44:11;24.10;68.30
40758;DHT22;26462;47.384;19.218;2023-07-31T08:46:40;24.20;67.80
40758;DHT22;26462;47.384;19.218;2023-07-31T08:49:13;24.20;67.10
40758;DHT22;26462;47.384;19.218;2023-07-31T08:51:50;24.40;67.10
40758;DHT22;26462;47.384;19.218;2023-07-31T08:54:32;24.30;67.00
40758;DHT22;26462;47.384;19.218;2023-07-31T08:57:03;24.10;67.20
40758;DHT22;26462;47.384;19.218;2023-07-31T08:59:45;24.10;68.00
40758;DHT22;26462;47.384;19.218;2023-07-31T09:02:14;24.10;66.40
40758;DHT22;26462;47.384;19.218;2023-07-31T09:04:43;24.20;66.80
40758;DHT22;26462;47.384;19.218;2023-07-31T09:07:14;24.10;66.30
40758;DHT22;26462;47.384;19.218;2023-07-31T09:09:45;24.20;65.10
40758;DHT22;26462;47.384;19.218;2023-07-31T09:12:16;24.10;64.90
40758;DHT22;26462;47.384;19.218;2023-07-31T09:14:45;24.50;65.60
40758;DHT22;26462;47.384;19.218;2023-07-31T09:17:13;24.20;65.20
40758;DHT22;26462;47.384;19.218;2023-07-31T09:19:47;24.20;65.70
40758;DHT22;26462;47.384;19.218;2023-07-31T09:22:14;24.30;66.40
40758;DHT22;26462;47.384;19.218;2023-07-31T09:24:42;24.30;65.30
40758;DHT22;26462;47.384;19.218;2023-07-31T09:27:09;24.30;65.20
40758;DHT22;26462;47.384;19.218;2023-07-31T09:29:38;24.30;64.70
40758;DHT22;26462;47.384;19.218;2023-07-31T09:32:16;24.30;65.10
40758;DHT22;26462;47.384;19.218;2023-07-31T09:34:46;24.40;65.60
40758;DHT22;26462;47.384;19.218;2023-07-31T09:37:14;24.10;65.00
40758;DHT22;26462;47.384;19.218;2023-07-31T09:39:49;24.70;65.40
40758;DHT22;26462;47.384;19.218;2023-07-31T09:42:26;24.60;64.90
40758;DHT22;26462;47.384;19.218;2023-07-31T09:44:54;24.50;64.70
40758;DHT22;26462;47.384;19.218;2023-07-31T09:47:47;24.60;65.10
40758;DHT22;26462;47.384;19.218;2023-07-31T09:50:16;24.70;66.40
40758;DHT22;26462;47.384;19.218;2023-07-31T09:52:44;24.80;65.50
40758;DHT22;26462;47.384;19.218;2023-07-31T09:55:18;25.00;64.60
40758;DHT22;26462;47.384;19.218;2023-07-31T09:58:05;24.70;64.00
40758;DHT22;26462;47.384;19.218;2023-07-31T10:00:39;24.60;64.20
40758;DHT22;26462;47.384;19.218;2023-07-31T10:03:08;24.60;65.80
40758;DHT22;26462;47.384;19.218;2023-07-31T10:05:45;24.50;64.40
40758;DHT22;26462;47.384;19.218;2023-07-31T10:08:20;26.00;65.90
40758;DHT22;26462;47.384;19.218;2023-07-31T10:10:51;24.50;65.90
40758;DHT22;26462;47.384;19.218;2023-07-31T10:13:19;24.50;66.50
40758;DHT22;26462;47.384;19.218;2023-07-31T10:15:51;24.70;66.10
40758;DHT22;26462;47.384;19.218;2023-07-31T10:18:22;24.60;65.20
40758;DHT22;26462;47.384;19.218;2023-07-31T10:20:49;24.80;65.40
40758;DHT22;26462;47.384;19.218;2023-07-31T10:23:19;24.70;65.50
40758;DHT22;26462;47.384;19.218;2023-07-31T10:25:48;24.60;64.60
40758;DHT22;26462;47.384;19.218;2023-07-31T10:28:17;24.60;65.00
40758;DHT22;26462;47.384;19.218;2023-07-31T10:30:46;24.80;64.30
40758;DHT22;26462;47.384;19.218;2023-07-31T10:33:15;24.50;65.10
40758;DHT22;26462;47.384;19.218;2023-07-31T10:35:44;24.70;65.80
40758;DHT22;26462;47.384;19.218;2023-07-31T10:38:19;24.50;65.40
40758;DHT22;26462;47.384;19.218;2023-07-31T10:40:47;24.70;66.80
40758;DHT22;26462;47.384;19.218;2023-07-31T10:43:25;24.80;65.70
40758;DHT22;26462;47.384;19.218;2023-07-31T10:45:54;24.80;66.10
40758;DHT22;26462;47.384;19.218;2023-07-31T10:48:22;24.80;64.60
40758;DHT22;26462;47.384;19.218;2023-07-31T10:50:54;24.70;64.90
40758;DHT22;26462;47.384;19.218;2023-07-31T10:53:25;25.00;65.90
40758;DHT22;26462;47.384;19.218;2023-07-31T10:55:59;24.90;64.50
40758;DHT22;26462;47.384;19.218;2023-07-31T10:59:00;25.00;64.80
40758;DHT22;26462;47.384;19.218;2023-07-31T11:01:55;24.80;65.50
40758;DHT22;26462;47.384;19.218;2023-07-31T11:04:31;25.00;65.20
40758;DHT22;26462;47.384;19.218;2023-07-31T11:07:01;25.10;65.40
40758;DHT22;26462;47.384;19.218;2023-07-31T11:09:31;25.20;65.50
40758;DHT22;26462;47.384;19.218;2023-07-31T11:12:03;25.00;65.00
40758;DHT22;26462;47.384;19.218;2023-07-31T11:14:31;25.00;65.60
40758;DHT22;26462;47.384;19.218;2023-07-31T11:16:58;25.00;64.40
40758;DHT22;26462;47.384;19.218;2023-07-31T11:19:26;25.10;65.10
40758;DHT22;26462;47.384;19.218;2023-07-31T11:21:53;25.10;63.20
40758;DHT22;26462;47.384;19.218;2023-07-31T11:24:22;25.10;64.40
40758;DHT22;26462;47.384;19.218;2023-07-31T11:26:56;25.00;64.80
40758;DHT22;26462;47.384;19.218;2023-07-31T11:29:27;25.10;66.00
40758;DHT22;26462;47.384;19.218;2023-07-31T11:31:56;25.30;65.50
40758;DHT22;26462;47.384;19.218;2023-07-31T11:34:23;25.30;65.00
40758;DHT22;26462;47.384;19.218;2023-07-31T11:36:54;25.10;64.70
40758;DHT22;26462;47.384;19.218;2023-07-31T11:39:25;25.50;66.30
40758;DHT22;26462;47.384;19.218;2023-07-31T11:41:59;25.50;63.80
40758;DHT22;26462;47.384;19.218;2023-07-31T11:44:26;25.20;63.10
40758;DHT22;26462;47.384;19.218;2023-07-31T11:46:56;25.30;63.40
40758;DHT22;26462;47.384;19.218;2023-07-31T11:49:24;25.30;62.40
40758;DHT22;26462;47.384;19.218;2023-07-31T11:51:51;25.20;63.80
40758;DHT22;26462;47.384;19.218;2023-07-31T11:54:18;25.30;63.50
40758;DHT22;26462;47.384;19.218;2023-07-31T11:56:45;25.40;63.20
40758;DHT22;26462;47.384;19.218;2023-07-31T11:59:13;25.50;63.00
40758;DHT22;26462;47.384;19.218;2023-07-31T12:01:40;25.50;63.10
40758;DHT22;26462;47.384;19.218;2023-07-31T12:04:08;25.40;61.50
40758;DHT22;26462;47.384;19.218;2023-07-31T12:06:36;25.40;62.20
40758;DHT22;26462;47.384;19.218;2023-07-31T12:09:05;25.40;62.40
40758;DHT22;26462;47.384;19.218;2023-07-31T12:11:52;25.40;62.60
40758;DHT22;26462;47.384;19.218;2023-07-31T12:14:25;25.50;61.80
40758;DHT22;26462;47.384;19.218;2023-07-31T12:16:58;25.40;61.20
40758;DHT22;26462;47.384;19.218;2023-07-31T12:19:26;25.40;60.80
40758;DHT22;26462;47.384;19.218;2023-07-31T12:21:59;25.40;61.20
40758;DHT22;26462;47.384;19.218;2023-07-31T12:24:27;25.40;61.80
40758;DHT22;26462;47.384;19.218;2023-07-31T12:26:54;25.50;62.00
40758;DHT22;26462;47.384;19.218;2023-07-31T12:29:22;25.60;62.40
40758;DHT22;26462;47.384;19.218;2023-07-31T12:31:49;25.60;61.50
40758;DHT22;26462;47.384;19.218;2023-07-31T12:34:17;25.60;60.60
40758;DHT22;26462;47.384;19.218;2023-07-31T12:36:45;25.60;61.00
40758;DHT22;26462;47.384;19.218;2023-07-31T12:39:13;25.60;61.40
40758;DHT22;26462;47.384;19.218;2023-07-31T12:41:41;25.60;60.30
40758;DHT22;26462;47.384;19.218;2023-07-31T12:44:08;25.60;62.20
40758;DHT22;26462;47.384;19.218;2023-07-31T12:46:37;25.70;61.90
40758;DHT22;26462;47.384;19.218;2023-07-31T12:49:06;25.60;61.80
40758;DHT22;26462;47.384;19.218;2023-07-31T12:51:34;25.60;61.20
40758;DHT22;26462;47.384;19.218;2023-07-31T12:54:02;25.60;61.30
40758;DHT22;26462;47.384;19.218;2023-07-31T12:56:30;25.70;62.40
40758;DHT22;26462;47.384;19.218;2023-07-31T12:58:57;25.80;62.00
40758;DHT22;26462;47.384;19.218;2023-07-31T13:01:24;25.70;61.20
40758;DHT22;26462;47.384;19.218;2023-07-31T13:03:51;25.50;61.30
40758;DHT22;26462;47.384;19.218;2023-07-31T13:06:19;25.70;62.50
40758;DHT22;26462;47.384;19.218;2023-07-31T13:08:47;25.70;62.60
40758;DHT22;26462;47.384;19.218;2023-07-31T13:11:14;25.80;63.20
40758;DHT22;26462;47.384;19.218;2023-07-31T13:13:41;25.80;62.70
40758;DHT22;26462;47.384;19.218;2023-07-31T13:16:08;25.70;63.30
40758;DHT22;26462;47.384;19.218;2023-07-31T13:18:35;25.90;63.60
40758;DHT22;26462;47.384;19.218;2023-07-31T13:21:03;25.90;62.90
40758;DHT22;26462;47.384;19.218;2023-07-31T13:23:30;25.90;62.20
40758;DHT22;26462;47.384;19.218;2023-07-31T13:25:57;26.00;62.50
40758;DHT22;26462;47.384;19.218;2023-07-31T13:28:24;25.90;62.70
40758;DHT22;26462;47.384;19.218;2023-07-31T13:30:54;25.70;62.90
40758;DHT22;26462;47.384;19.218;2023-07-31T13:33:21;25.60;63.40
40758;DHT22;26462;47.384;19.218;2023-07-31T13:36:03;25.70;63.80
40758;DHT22;26462;47.384;19.218;2023-07-31T13:38:31;25.80;63.50
40758;DHT22;26462;47.384;19.218;2023-07-31T13:40:58;25.80;62.80
40758;DHT22;26462;47.384;19.218;2023-07-31T13:43:25;25.90;62.30
40758;DHT22;26462;47.384;19.218;2023-07-31T13:45:52;26.00;61.50
40758;DHT22;26462;47.384;19.218;2023-07-31T13:48:20;25.90;61.10
40758;DHT22;26462;47.384;19.218;2023-07-31T13:50:47;26.00;61.40
40758;DHT22;26462;47.384;19.218;2023-07-31T13:53:14;26.00;61.60
40758;DHT22;26462;47.384;19.218;2023-07-31T13:55:41;25.90;61.70
40758;DHT22;26462;47.384;19.218;2023-07-31T13:58:12;25.80;62.20
40758;DHT22;26462;47.384;19.218;2023-07-31T14:00:39;25.80;62.70
40758;DHT22;26462;47.384;19.218;2023-07-31T14:03:06;25.80;61.70
40758;DHT22;26462;47.384;19.218;2023-07-31T14:05:33;25.90;61.70
40758;DHT22;26462;47.384;19.218;2023-07-31T14:08:01;26.00;61.40
40758;DHT22;26462;47.384;19.218;2023-07-31T14:10:28;26.00;62.30
40758;DHT22;26462;47.384;19.218;2023-07-31T14:12:55;26.10;61.10
40758;DHT22;26462;47.384;19.218;2023-07-31T14:15:22;26.00;60.80
40758;DHT22;26462;47.384;19.218;2023-07-31T14:17:49;25.90;61.40
40758;DHT22;26462;47.384;19.218;2023-07-31T14:20:17;26.00;61.80
40758;DHT22;26462;47.384;19.218;2023-07-31T14:22:44;25.80;61.60
40758;DHT22;26462;47.384;19.218;2023-07-31T14:25:11;25.70;62.10
40758;DHT22;26462;47.384;19.218;2023-07-31T14:27:39;25.70;62.30
40758;DHT22;26462;47.384;19.218;2023-07-31T14:30:08;25.70;62.70
40758;DHT22;26462;47.384;19.218;2023-07-31T14:32:35;25.80;62.40
40758;DHT22;26462;47.384;19.218;2023-07-31T14:35:04;25.90;62.50
40758;DHT22;26462;47.384;19.218;2023-07-31T14:37:44;25.80;62.60
40758;DHT22;26462;47.384;19.218;2023-07-31T14:40:13;25.70;63.40
40758;DHT22;26462;47.384;19.218;2023-07-31T14:42:40;25.60;63.00
40758;DHT22;26462;47.384;19.218;2023-07-31T14:45:07;25.60;63.10
40758;DHT22;26462;47.384;19.218;2023-07-31T14:47:36;25.70;62.70
40758;DHT22;26462;47.384;19.218;2023-07-31T14:50:03;25.80;62.10
40758;DHT22;26462;47.384;19.218;2023-07-31T14:52:31;25.80;62.20
40758;DHT22;26462;47.384;19.218;2023-07-31T14:54:58;25.90;61.70
40758;DHT22;26462;47.384;19.218;2023-07-31T14:57:25;25.90;62.10
40758;DHT22;26462;47.384;19.218;2023-07-31T14:59:53;26.00;61.70
40758;DHT22;26462;47.384;19.218;2023-07-31T15:02:21;26.00;61.90
40758;DHT22;26462;47.384;19.218;2023-07-31T15:04:49;26.00;61.30
40758;DHT22;26462;47.384;19.218;2023-07-31T15:07:16;26.00;62.00
40758;DHT22;26462;47.384;19.218;2023-07-31T15:09:43;26.00;61.70
40758;DHT22;26462;47.384;19.218;2023-07-31T15:12:10;26.00;61.50
40758;DHT22;26462;47.384;19.218;2023-07-31T15:14:37;26.00;61.80
40758;DHT22;26462;47.384;19.218;2023-07-31T15:17:05;25.80;61.40
40758;DHT22;26462;47.384;19.218;2023-07-31T15:19:32;25.70;62.30
40758;DHT22;26462;47.384;19.218;2023-07-31T15:22:02;25.60;61.50
40758;DHT22;26462;47.384;19.218;2023-07-31T15:24:29;25.70;61.80
40758;DHT22;26462;47.384;19.218;2023-07-31T15:26:57;25.60;61.40
40758;DHT22;26462;47.384;19.218;2023-07-31T15:29:24;25.60;62.10
40758;DHT22;26462;47.384;19.218;2023-07-31T15:31:52;25.70;62.30
40758;DHT22;26462;47.384;19.218;2023-07-31T15:34:20;25.70;62.10
40758;DHT22;26462;47.384;19.218;2023-07-31T15:36:47;25.60;62.50
40758;DHT22;26462;47.384;19.218;2023-07-31T15:39:14;25.60;62.80
40758;DHT22;26462;47.384;19.218;2023-07-31T15:41:42;25.50;61.90
40758;DHT22;26462;47.384;19.218;2023-07-31T15:44:09;25.50;62.30
40758;DHT22;26462;47.384;19.218;2023-07-31T15:46:36;25.50;62.30
40758;DHT22;26462;47.384;19.218;2023-07-31T15:49:03;25.60;62.40
40758;DHT22;26462;47.384;19.218;2023-07-31T15:51:30;25.50;61.30
40758;DHT22;26462;47.384;19.218;2023-07-31T15:53:57;25.40;61.90
40758;DHT22;26462;47.384;19.218;2023-07-31T15:56:25;25.40;62.00
40758;DHT22;26462;47.384;19.218;2023-07-31T15:58:52;25.50;61.90
40758;DHT22;26462;47.384;19.218;2023-07-31T16:01:19;25.40;60.80
40758;DHT22;26462;47.384;19.218;2023-07-31T16:03:46;25.50;62.00
40758;DHT22;26462;47.384;19.218;2023-07-31T16:06:14;25.40;61.00
40758;DHT22;26462;47.384;19.218;2023-07-31T16:08:41;25.40;61.20
40758;DHT22;26462;47.384;19.218;2023-07-31T16:11:09;25.30;61.00
40758;DHT22;26462;47.384;19.218;2023-07-31T16:13:36;25.30;61.50
40758;DHT22;26462;47.384;19.218;2023-07-31T16:16:03;25.30;61.90
40758;DHT22;26462;47.384;19.218;2023-07-31T16:18:32;25.40;61.80
40758;DHT22;26462;47.384;19.218;2023-07-31T16:21:00;25.40;61.90
40758;DHT22;26462;47.384;19.218;2023-07-31T16:23:27;25.40;62.30
40758;DHT22;26462;47.384;19.218;2023-07-31T16:25:54;25.30;61.80
40758;DHT22;26462;47.384;19.218;2023-07-31T16:28:21;25.20;61.00
40758;DHT22;26462;47.384;19.218;2023-07-31T16:30:49;25.20;61.00
40758;DHT22;26462;47.384;19.218;2023-07-31T16:33:17;25.20;61.40
40758;DHT22;26462;47.384;19.218;2023-07-31T16:35:44;25.20;61.20
40758;DHT22;26462;47.384;19.218;2023-07-31T16:38:11;25.20;60.90
40758;DHT22;26462;47.384;19.218;2023-07-31T16:40:38;25.10;61.20
40758;DHT22;26462;47.384;19.218;2023-07-31T16:43:06;25.00;60.90
40758;DHT22;26462;47.384;19.218;2023-07-31T16:45:34;25.00;61.40
40758;DHT22;26462;47.384;19.218;2023-07-31T16:48:01;25.00;61.70
40758;DHT22;26462;47.384;19.218;2023-07-31T16:50:31;25.00;61.40
40758;DHT22;26462;47.384;19.218;2023-07-31T16:52:58;24.80;61.70
40758;DHT22;26462;47.384;19.218;2023-07-31T16:55:26;24.70;62.10
40758;DHT22;26462;47.384;19.218;2023-07-31T16:57:55;24.60;62.50
40758;DHT22;26462;47.384;19.218;2023-07-31T17:00:23;24.60;62.80
40758;DHT22;26462;47.384;19.218;2023-07-31T17:02:50;24.50;62.80
40758;DHT22;26462;47.384;19.218;2023-07-31T17:05:17;24.60;63.40
40758;DHT22;26462;47.384;19.218;2023-07-31T17:07:45;24.50;63.50
40758;DHT22;26462;47.384;19.218;2023-07-31T17:10:12;24.50;63.60
40758;DHT22;26462;47.384;19.218;2023-07-31T17:12:39;24.30;64.10
40758;DHT22;26462;47.384;19.218;2023-07-31T17:15:07;24.30;64.90
40758;DHT22;26462;47.384;19.218;2023-07-31T17:17:36;24.30;66.00
40758;DHT22;26462;47.384;19.218;2023-07-31T17:20:04;24.20;65.70
40758;DHT22;26462;47.384;19.218;2023-07-31T17:22:31;24.20;66.80
40758;DHT22;26462;47.384;19.218;2023-07-31T17:25:18;24.10;66.90
40758;DHT22;26462;47.384;19.218;2023-07-31T17:27:46;24.10;67.20
40758;DHT22;26462;47.384;19.218;2023-07-31T17:30:34;24.10;67.20
40758;DHT22;26462;47.384;19.218;2023-07-31T17:33:01;24.10;67.50
40758;DHT22;26462;47.384;19.218;2023-07-31T17:35:28;24.10;67.80
40758;DHT22;26462;47.384;19.218;2023-07-31T17:37:56;24.10;68.70
40758;DHT22;26462;47.384;19.218;2023-07-31T17:40:25;24.00;70.00
40758;DHT22;26462;47.384;19.218;2023-07-31T17:42:52;24.00;70.50
40758;DHT22;26462;47.384;19.218;2023-07-31T17:45:20;23.90;69.40
40758;DHT22;26462;47.384;19.218;2023-07-31T17:47:48;23.90;69.10
40758;DHT22;26462;47.384;19.218;2023-07-31T17:50:15;23.80;68.00
40758;DHT22;26462;47.384;19.218;2023-07-31T17:52:43;23.80;68.40
40758;DHT22;26462;47.384;19.218;2023-07-31T17:55:11;23.80;67.70
40758;DHT22;26462;47.384;19.218;2023-07-31T17:57:38;23.80;67.80
40758;DHT22;26462;47.384;19.218;2023-07-31T18:00:06;23.80;67.70
40758;DHT22;26462;47.384;19.218;2023-07-31T18:02:34;23.80;67.40
40758;DHT22;26462;47.384;19.218;2023-07-31T18:05:04;23.70;68.00
40758;DHT22;26462;47.384;19.218;2023-07-31T18:07:32;23.70;67.80
40758;DHT22;26462;47.384;19.218;2023-07-31T18:09:59;23.70;67.90
40758;DHT22;26462;47.384;19.218;2023-07-31T18:12:30;23.60;68.00
40758;DHT22;26462;47.384;19.218;2023-07-31T18:14:57;23.60;68.80
40758;DHT22;26462;47.384;19.218;2023-07-31T18:17:26;23.60;69.10
40758;DHT22;26462;47.384;19.218;2023-07-31T18:19:54;23.50;70.00
40758;DHT22;26462;47.384;19.218;2023-07-31T18:22:22;23.40;70.10
40758;DHT22;26462;47.384;19.218;2023-07-31T18:24:49;23.40;70.00
40758;DHT22;26462;47.384;19.218;2023-07-31T18:27:16;23.30;70.10
40758;DHT22;26462;47.384;19.218;2023-07-31T18:29:45;23.30;70.10
40758;DHT22;26462;47.384;19.218;2023-07-31T18:32:13;23.20;69.70
40758;DHT22;26462;47.384;19.218;2023-07-31T18:34:41;23.20;69.90
40758;DHT22;26462;47.384;19.218;2023-07-31T18:37:08;23.10;69.60
40758;DHT22;26462;47.384;19.218;2023-07-31T18:39:36;23.10;69.10
40758;DHT22;26462;47.384;19.218;2023-07-31T18:42:04;23.10;69.20
40758;DHT22;26462;47.384;19.218;2023-07-31T18:44:31;23.10;69.40
40758;DHT22;26462;47.384;19.218;2023-07-31T18:46:59;23.00;69.50
40758;DHT22;26462;47.384;19.218;2023-07-31T18:49:26;23.00;69.80
40758;DHT22;26462;47.384;19.218;2023-07-31T18:51:55;23.00;70.60
40758;DHT22;26462;47.384;19.218;2023-07-31T18:54:25;22.90;70.20
40758;DHT22;26462;47.384;19.218;2023-07-31T18:56:52;22.90;71.10
40758;DHT22;26462;47.384;19.218;2023-07-31T18:59:20;22.80;71.50
40758;DHT22;26462;47.384;19.218;2023-07-31T19:01:47;22.80;72.50
40758;DHT22;26462;47.384;19.218;2023-07-31T19:04:16;22.70;72.60
40758;DHT22;26462;47.384;19.218;2023-07-31T19:06:44;22.70;73.30
40758;DHT22;26462;47.384;19.218;2023-07-31T19:09:33;22.70;73.00
40758;DHT22;26462;47.384;19.218;2023-07-31T19:12:00;22.60;73.50
40758;DHT22;26462;47.384;19.218;2023-07-31T19:14:28;22.50;73.70
40758;DHT22;26462;47.384;19.218;2023-07-31T19:16:56;22.50;74.20
40758;DHT22;26462;47.384;19.218;2023-07-31T19:19:24;22.40;73.80
40758;DHT22;26462;47.384;19.218;2023-07-31T19:21:51;22.40;74.00
40758;DHT22;26462;47.384;19.218;2023-07-31T19:24:19;22.30;74.70
40758;DHT22;26462;47.384;19.218;2023-07-31T19:26:49;22.30;75.00
40758;DHT22;26462;47.384;19.218;2023-07-31T19:29:18;22.20;75.70
40758;DHT22;26462;47.384;19.218;2023-07-31T19:31:46;22.20;75.10
40758;DHT22;26462;47.384;19.218;2023-07-31T19:34:33;22.20;74.50
40758;DHT22;26462;47.384;19.218;2023-07-31T19:37:00;22.10;74.60
40758;DHT22;26462;47.384;19.218;2023-07-31T19:39:28;22.10;74.70
40758;DHT22;26462;47.384;19.218;2023-07-31T19:41:56;22.10;74.70
40758;DHT22;26462;47.384;19.218;2023-07-31T19:44:24;22.00;74.50
40758;DHT22;26462;47.384;19.218;2023-07-31T19:46:51;22.00;74.70
40758;DHT22;26462;47.384;19.218;2023-07-31T19:49:19;22.00;74.70